createdAt,value
2022-07-25T00:00:57.781Z,14
2022-07-25T00:05:58.303Z,14
2022-07-25T00:10:57.777Z,15
2022-07-25T00:15:58.287Z,14
2022-07-25T00:20:57.889Z,16
2022-07-25T00:25:58.387Z,16
2022-07-25T00:30:57.914Z,16
2022-07-25T00:35:58.382Z,17
2022-07-25T00:40:57.852Z,14
2022-07-25T00:45:58.374Z,15
2022-07-25T00:50:57.851Z,14
2022-07-25T00:55:58.321Z,14
2022-07-25T01:00:57.819Z,15
2022-07-25T01:05:58.269Z,14
2022-07-25T01:10:57.756Z,14
2022-07-25T01:15:58.388Z,14
2022-07-25T01:20:57.868Z,14
2022-07-25T01:25:58.354Z,15
2022-07-25T01:30:57.877Z,15
2022-07-25T01:35:58.317Z,15
2022-07-25T01:40:57.809Z,15
2022-07-25T01:45:58.345Z,14
2022-07-25T01:50:57.798Z,16
2022-07-25T01:55:58.287Z,15
2022-07-25T02:00:57.819Z,14
2022-07-25T02:05:58.273Z,16
2022-07-25T02:10:57.778Z,14
2022-07-25T02:15:58.264Z,17
2022-07-25T02:20:57.928Z,16
2022-07-25T02:25:58.383Z,16
2022-07-25T02:30:57.967Z,15
2022-07-25T02:35:58.397Z,15
2022-07-25T02:40:57.895Z,16
2022-07-25T02:45:58.456Z,16
2022-07-25T02:50:57.941Z,15
2022-07-25T02:55:58.429Z,14
2022-07-25T03:00:58.047Z,17
2022-07-25T03:05:58.453Z,14
2022-07-25T03:10:57.969Z,14
2022-07-25T03:15:58.481Z,15
2022-07-25T03:20:58.089Z,15
2022-07-25T03:25:57.591Z,15
2022-07-25T03:30:58.091Z,15
2022-07-25T03:35:57.593Z,14
2022-07-25T03:40:58.075Z,18
2022-07-25T03:45:57.664Z,17
2022-07-25T03:51:01.166Z,17
2022-07-25T03:55:57.609Z,15
2022-07-25T04:00:58.122Z,17
2022-07-25T04:05:57.645Z,14
2022-07-25T04:10:58.114Z,16
2022-07-25T04:15:57.634Z,16
2022-07-25T04:20:58.266Z,19
2022-07-25T04:25:57.769Z,15
2022-07-25T04:30:58.254Z,17
2022-07-25T04:35:57.750Z,18
2022-07-25T04:40:58.235Z,16
2022-07-25T04:45:57.808Z,16
2022-07-25T04:50:58.497Z,17
2022-07-25T04:55:57.979Z,24
2022-07-25T05:00:58.570Z,24
2022-07-25T05:05:58.027Z,30
2022-07-25T05:10:57.509Z,24
2022-07-25T05:15:58.116Z,19
2022-07-25T05:20:57.651Z,20
2022-07-25T05:25:58.140Z,18
2022-07-25T05:30:57.622Z,18
2022-07-25T05:35:58.106Z,16
2022-07-25T05:40:57.597Z,16
2022-07-25T05:45:58.112Z,19
2022-07-25T05:50:57.592Z,13
2022-07-25T05:55:58.064Z,14
2022-07-25T06:00:57.533Z,15
2022-07-25T06:05:57.994Z,14
2022-07-25T06:10:58.472Z,17
2022-07-25T06:15:57.995Z,13
2022-07-25T06:20:57.551Z,14
2022-07-25T06:25:58.057Z,15
2022-07-25T06:30:57.538Z,25
2022-07-25T06:35:57.985Z,14
2022-07-25T06:40:58.439Z,14
2022-07-25T06:45:57.900Z,14
2022-07-25T06:50:58.387Z,15
2022-07-25T06:55:57.854Z,14
2022-07-25T07:00:58.366Z,13
2022-07-25T07:05:57.733Z,15
2022-07-25T07:10:58.220Z,16
2022-07-25T07:15:57.742Z,17
2022-07-25T07:20:58.277Z,16
2022-07-25T07:25:57.744Z,15
2022-07-25T07:31:15.690Z,15
2022-07-25T07:35:57.658Z,15
2022-07-25T07:40:58.657Z,16
2022-07-25T07:45:58.112Z,15
2022-07-25T07:50:57.588Z,14
2022-07-25T07:55:58.055Z,14
2022-07-25T08:00:57.498Z,15
2022-07-25T08:05:57.966Z,16
2022-07-25T08:10:58.898Z,13
2022-07-25T08:15:58.065Z,15
2022-07-25T08:20:58.459Z,14
2022-07-25T08:25:57.904Z,15
2022-07-25T08:30:58.436Z,17
2022-07-25T08:35:57.808Z,14
2022-07-25T08:40:58.259Z,17
2022-07-25T08:45:57.767Z,14
2022-07-25T08:50:58.133Z,15
2022-07-25T08:55:57.572Z,13
2022-07-25T09:00:57.992Z,15
2022-07-25T09:05:58.425Z,13
2022-07-25T09:10:57.819Z,13
2022-07-25T09:15:58.285Z,15
2022-07-25T09:20:57.736Z,15
2022-07-25T09:25:58.147Z,15
2022-07-25T09:30:57.558Z,16
2022-07-25T09:35:57.898Z,14
2022-07-25T09:40:58.279Z,17
2022-07-25T09:45:57.727Z,16
2022-07-25T09:50:58.043Z,16
2022-07-25T09:55:57.512Z,16
2022-07-25T10:00:58.149Z,16
2022-07-25T10:05:57.570Z,17
2022-07-25T10:10:58.090Z,19
2022-07-25T10:15:57.629Z,17
2022-07-25T10:20:58.367Z,16
2022-07-25T10:25:57.957Z,15
2022-07-25T10:30:58.650Z,16
2022-07-25T10:35:58.092Z,16
2022-07-25T10:40:57.713Z,16
2022-07-25T10:45:58.401Z,17
2022-07-25T10:50:58.148Z,17
2022-07-25T10:56:05.780Z,16
2022-07-25T11:00:58.381Z,17
2022-07-25T11:05:58.373Z,15
2022-07-25T11:10:58.438Z,17
2022-07-25T11:15:58.903Z,16
2022-07-25T11:20:59.866Z,16
2022-07-25T11:25:57.748Z,16
2022-07-25T11:30:58.346Z,15
2022-07-25T11:35:58.008Z,16
2022-07-25T11:40:57.625Z,19
2022-07-25T11:45:58.282Z,17
2022-07-25T11:50:57.842Z,16
2022-07-25T11:55:58.418Z,17
2022-07-25T12:00:57.960Z,16
2022-07-25T12:05:58.477Z,15
2022-07-25T12:10:57.939Z,18
2022-07-25T12:15:58.302Z,16
2022-07-25T12:20:57.829Z,16
2022-07-25T12:25:58.223Z,17
2022-07-25T12:30:57.666Z,16
2022-07-25T12:35:58.008Z,18
2022-07-25T12:40:58.385Z,17
2022-07-25T12:45:57.854Z,16
2022-07-25T12:50:58.137Z,17
2022-07-25T12:55:57.513Z,15
2022-07-25T13:01:01.178Z,16
2022-07-25T13:05:58.300Z,16
2022-07-25T13:10:57.710Z,17
2022-07-25T13:15:58.069Z,17
2022-07-25T13:20:57.589Z,16
2022-07-25T13:25:57.966Z,19
2022-07-25T13:30:58.370Z,18
2022-07-25T13:35:58.304Z,17
2022-07-25T13:40:59.096Z,16
2022-07-25T13:45:58.156Z,15
2022-07-25T13:50:57.499Z,15
2022-07-25T13:55:57.900Z,16
2022-07-25T14:00:58.316Z,19
2022-07-25T14:05:57.681Z,16
2022-07-25T14:10:58.091Z,17
2022-07-25T14:15:57.514Z,16
2022-07-25T14:20:58.013Z,15
2022-07-25T14:25:58.393Z,16
2022-07-25T14:30:57.806Z,17
2022-07-25T14:35:58.196Z,18
2022-07-25T14:40:57.590Z,18
2022-07-25T14:45:57.970Z,17
2022-07-25T14:50:58.906Z,19
2022-07-25T14:55:58.311Z,18
2022-07-25T15:00:57.804Z,16
2022-07-25T15:05:58.116Z,18
2022-07-25T15:10:57.507Z,18
2022-07-25T15:15:58.037Z,17
2022-07-25T15:20:57.462Z,17
2022-07-25T15:26:01.875Z,17
2022-07-25T15:30:58.327Z,18
2022-07-25T15:35:57.693Z,17
2022-07-25T15:40:58.074Z,18
2022-07-25T15:45:57.462Z,17
2022-07-25T15:50:57.878Z,16
2022-07-25T15:55:58.268Z,18
2022-07-25T16:00:58.260Z,19
2022-07-25T16:05:57.628Z,18
2022-07-25T16:10:58.059Z,18
2022-07-25T16:15:57.552Z,20
2022-07-25T16:20:58.022Z,19
2022-07-25T16:25:57.437Z,18
2022-07-25T16:30:57.913Z,18
2022-07-25T16:35:58.267Z,17
2022-07-25T16:40:57.695Z,18
2022-07-25T16:45:58.144Z,18
2022-07-25T16:50:57.555Z,17
2022-07-25T16:55:57.983Z,18
2022-07-25T17:00:58.397Z,18
2022-07-25T17:05:57.823Z,16
2022-07-25T17:10:58.249Z,18
2022-07-25T17:15:57.743Z,18
2022-07-25T17:20:58.276Z,18
2022-07-25T17:25:57.729Z,19
2022-07-25T17:30:58.235Z,16
2022-07-25T17:35:57.628Z,16
2022-07-25T17:40:58.082Z,17
2022-07-25T17:45:57.524Z,18
2022-07-25T17:50:57.966Z,17
2022-07-25T17:55:58.931Z,22
2022-07-25T18:01:01.172Z,20
2022-07-25T18:05:58.422Z,20
2022-07-25T18:10:57.892Z,18
2022-07-25T18:15:58.382Z,18
2022-07-25T18:20:57.948Z,18
2022-07-25T18:25:58.403Z,20
2022-07-25T18:30:57.963Z,20
2022-07-25T18:35:58.318Z,19
2022-07-25T18:41:18.928Z,20
2022-07-25T18:45:58.331Z,20
2022-07-25T18:50:57.688Z,18
2022-07-25T18:55:58.163Z,19
2022-07-25T19:00:57.586Z,18
2022-07-25T19:06:03.136Z,17
2022-07-25T19:10:58.185Z,42
2022-07-25T19:15:57.684Z,34
2022-07-25T19:20:58.221Z,22
2022-07-25T19:25:57.701Z,19
2022-07-25T19:30:58.209Z,21
2022-07-25T19:35:57.617Z,23
2022-07-25T19:40:58.074Z,20
2022-07-25T19:45:57.617Z,19
2022-07-25T19:50:58.007Z,20
2022-07-25T19:55:57.477Z,17
2022-07-25T20:00:58.050Z,18
2022-07-25T20:05:58.408Z,21
2022-07-25T20:10:57.889Z,25
2022-07-25T20:15:58.370Z,20
2022-07-25T20:20:57.970Z,20
2022-07-25T20:25:58.451Z,21
2022-07-25T20:30:57.986Z,20
2022-07-25T20:35:58.401Z,18
2022-07-25T20:40:57.872Z,21
2022-07-25T20:45:58.399Z,19
2022-07-25T20:50:57.804Z,19
2022-07-25T20:55:58.285Z,20
2022-07-25T21:00:58.411Z,24
2022-07-25T21:05:57.845Z,22
2022-07-25T21:10:58.080Z,22
2022-07-25T21:15:57.567Z,24
2022-07-25T21:20:58.178Z,23
2022-07-25T21:25:57.678Z,26
2022-07-25T21:30:58.167Z,21
2022-07-25T21:35:57.640Z,22
2022-07-25T21:40:58.714Z,22
2022-07-25T21:45:58.314Z,19
2022-07-25T21:50:57.709Z,22
2022-07-25T21:55:58.217Z,22
2022-07-25T22:00:58.364Z,23
2022-07-25T22:05:57.772Z,23
2022-07-25T22:10:58.561Z,24
2022-07-25T22:15:57.770Z,22
2022-07-25T22:20:58.409Z,23
2022-07-25T22:25:57.895Z,22
2022-07-25T22:30:58.410Z,23
2022-07-25T22:35:57.901Z,22
2022-07-25T22:40:58.399Z,21
2022-07-25T22:45:57.925Z,21
2022-07-25T22:50:58.388Z,22
2022-07-25T22:55:57.875Z,19
2022-07-25T23:00:58.409Z,20
2022-07-25T23:05:57.916Z,24
2022-07-25T23:10:58.445Z,22
2022-07-25T23:15:58.025Z,23
2022-07-25T23:20:57.625Z,21
2022-07-25T23:25:58.130Z,21
2022-07-25T23:30:57.633Z,21
2022-07-25T23:35:58.156Z,23
2022-07-25T23:40:57.662Z,23
2022-07-25T23:45:58.164Z,22
2022-07-25T23:50:57.697Z,22
2022-07-25T23:55:58.215Z,22
